sensor_id;sensor_type;location;lat;lon;timestamp;P1;durP1;ratioP1;P2;durP2;ratioP2
12826;SDS011;66927;48.812;9.118;2023-08-17T00:00:16;5.38;;;4.95;;
12826;SDS011;66927;48.812;9.118;2023-08-17T00:02:43;6.45;;;5.85;;
12826;SDS011;66927;48.812;9.118;2023-08-17T00:05:10;6.80;;;5.18;;
12826;SDS011;66927;48.812;9.118;2023-08-17T00:07:36;5.38;;;4.95;;
12826;SDS011;66927;48.812;9.118;2023-08-17T00:10:02;6.70;;;6.13;;
12826;SDS011;66927;48.812;9.118;2023-08-17T00:12:28;5.85;;;5.15;;
12826;SDS011;66927;48.812;9.118;2023-08-17T00:14:54;5.95;;;5.43;;
12826;SDS011;66927;48.812;9.118;2023-08-17T00:17:20;5.75;;;5.18;;
12826;SDS011;66927;48.812;9.118;2023-08-17T00:19:46;7.60;;;5.83;;
12826;SDS011;66927;48.812;9.118;2023-08-17T00:22:12;5.63;;;5.13;;
12826;SDS011;66927;48.812;9.118;2023-08-17T00:24:37;5.55;;;5.05;;
12826;SDS011;66927;48.812;9.118;2023-08-17T00:27:06;5.20;;;4.70;;
12826;SDS011;66927;48.812;9.118;2023-08-17T00:29:33;6.47;;;5.50;;
12826;SDS011;66927;48.812;9.118;2023-08-17T00:32:00;6.20;;;5.60;;
12826;SDS011;66927;48.812;9.118;2023-08-17T00:34:26;6.15;;;4.82;;
12826;SDS011;66927;48.812;9.118;2023-08-17T00:36:52;5.63;;;5.03;;
12826;SDS011;66927;48.812;9.118;2023-08-17T00:39:17;8.05;;;5.93;;
12826;SDS011;66927;48.812;9.118;2023-08-17T00:41:44;4.80;;;4.35;;
12826;SDS011;66927;48.812;9.118;2023-08-17T00:44:10;5.20;;;4.70;;
12826;SDS011;66927;48.812;9.118;2023-08-17T00:46:37;5.28;;;4.78;;
12826;SDS011;66927;48.812;9.118;2023-08-17T00:49:03;5.32;;;4.55;;
12826;SDS011;66927;48.812;9.118;2023-08-17T00:51:30;5.20;;;4.70;;
12826;SDS011;66927;48.812;9.118;2023-08-17T00:53:57;5.40;;;4.65;;
12826;SDS011;66927;48.812;9.118;2023-08-17T00:56:24;5.27;;;4.77;;
12826;SDS011;66927;48.812;9.118;2023-08-17T00:58:51;5.40;;;4.70;;
12826;SDS011;66927;48.812;9.118;2023-08-17T01:01:17;5.03;;;4.40;;
12826;SDS011;66927;48.812;9.118;2023-08-17T01:03:44;7.03;;;5.40;;
12826;SDS011;66927;48.812;9.118;2023-08-17T01:06:10;4.80;;;4.40;;
12826;SDS011;66927;48.812;9.118;2023-08-17T01:08:38;5.23;;;4.43;;
12826;SDS011;66927;48.812;9.118;2023-08-17T01:11:08;7.50;;;4.80;;
12826;SDS011;66927;48.812;9.118;2023-08-17T01:14:04;7.27;;;5.07;;
12826;SDS011;66927;48.812;9.118;2023-08-17T01:16:56;5.00;;;4.50;;
12826;SDS011;66927;48.812;9.118;2023-08-17T01:19:28;5.30;;;4.78;;
12826;SDS011;66927;48.812;9.118;2023-08-17T01:21:57;6.80;;;4.83;;
12826;SDS011;66927;48.812;9.118;2023-08-17T01:24:28;5.40;;;4.90;;
12826;SDS011;66927;48.812;9.118;2023-08-17T01:26:54;5.63;;;5.03;;
12826;SDS011;66927;48.812;9.118;2023-08-17T01:29:21;7.78;;;4.93;;
12826;SDS011;66927;48.812;9.118;2023-08-17T01:31:51;7.20;;;4.93;;
12826;SDS011;66927;48.812;9.118;2023-08-17T01:34:32;4.80;;;4.40;;
12826;SDS011;66927;48.812;9.118;2023-08-17T01:37:01;5.13;;;4.72;;
12826;SDS011;66927;48.812;9.118;2023-08-17T01:39:34;5.40;;;4.88;;
12826;SDS011;66927;48.812;9.118;2023-08-17T01:42:03;5.72;;;5.10;;
12826;SDS011;66927;48.812;9.118;2023-08-17T01:44:31;5.90;;;5.00;;
12826;SDS011;66927;48.812;9.118;2023-08-17T01:46:57;6.07;;;5.33;;
12826;SDS011;66927;48.812;9.118;2023-08-17T01:49:23;5.15;;;4.32;;
12826;SDS011;66927;48.812;9.118;2023-08-17T01:51:48;5.45;;;4.95;;
12826;SDS011;66927;48.812;9.118;2023-08-17T01:54:15;5.73;;;4.57;;
12826;SDS011;66927;48.812;9.118;2023-08-17T01:56:41;5.17;;;4.67;;
12826;SDS011;66927;48.812;9.118;2023-08-17T01:59:06;4.60;;;4.07;;
12826;SDS011;66927;48.812;9.118;2023-08-17T02:01:32;8.80;;;5.30;;
12826;SDS011;66927;48.812;9.118;2023-08-17T02:03:57;5.15;;;4.70;;
12826;SDS011;66927;48.812;9.118;2023-08-17T02:06:27;6.90;;;4.80;;
12826;SDS011;66927;48.812;9.118;2023-08-17T02:08:52;5.45;;;4.95;;
12826;SDS011;66927;48.812;9.118;2023-08-17T02:11:18;6.27;;;5.20;;
12826;SDS011;66927;48.812;9.118;2023-08-17T02:13:44;5.13;;;4.67;;
12826;SDS011;66927;48.812;9.118;2023-08-17T02:16:11;4.68;;;4.28;;
12826;SDS011;66927;48.812;9.118;2023-08-17T02:18:37;6.60;;;4.77;;
12826;SDS011;66927;48.812;9.118;2023-08-17T02:21:03;5.43;;;4.90;;
12826;SDS011;66927;48.812;9.118;2023-08-17T02:23:28;4.97;;;4.47;;
12826;SDS011;66927;48.812;9.118;2023-08-17T02:25:54;4.97;;;4.57;;
12826;SDS011;66927;48.812;9.118;2023-08-17T02:28:20;7.38;;;4.80;;
12826;SDS011;66927;48.812;9.118;2023-08-17T02:30:46;5.45;;;4.82;;
12826;SDS011;66927;48.812;9.118;2023-08-17T02:33:12;7.85;;;5.10;;
12826;SDS011;66927;48.812;9.118;2023-08-17T02:35:38;6.30;;;5.10;;
12826;SDS011;66927;48.812;9.118;2023-08-17T02:38:03;5.33;;;4.83;;
12826;SDS011;66927;48.812;9.118;2023-08-17T02:40:29;4.68;;;4.05;;
12826;SDS011;66927;48.812;9.118;2023-08-17T02:42:55;4.87;;;4.47;;
12826;SDS011;66927;48.812;9.118;2023-08-17T02:45:20;6.88;;;4.43;;
12826;SDS011;66927;48.812;9.118;2023-08-17T02:47:46;5.70;;;4.70;;
12826;SDS011;66927;48.812;9.118;2023-08-17T02:50:11;5.10;;;4.60;;
12826;SDS011;66927;48.812;9.118;2023-08-17T02:52:37;5.07;;;4.57;;
12826;SDS011;66927;48.812;9.118;2023-08-17T02:55:03;5.00;;;4.50;;
12826;SDS011;66927;48.812;9.118;2023-08-17T02:57:29;4.20;;;3.80;;
12826;SDS011;66927;48.812;9.118;2023-08-17T02:59:54;5.20;;;4.43;;
12826;SDS011;66927;48.812;9.118;2023-08-17T03:02:20;6.33;;;4.80;;
12826;SDS011;66927;48.812;9.118;2023-08-17T03:04:45;5.47;;;4.97;;
12826;SDS011;66927;48.812;9.118;2023-08-17T03:07:11;6.72;;;4.60;;
12826;SDS011;66927;48.812;9.118;2023-08-17T03:09:37;7.13;;;4.73;;
12826;SDS011;66927;48.812;9.118;2023-08-17T03:12:02;7.27;;;5.37;;
12826;SDS011;66927;48.812;9.118;2023-08-17T03:14:28;5.77;;;5.23;;
12826;SDS011;66927;48.812;9.118;2023-08-17T03:16:54;7.90;;;4.80;;
12826;SDS011;66927;48.812;9.118;2023-08-17T03:19:20;6.97;;;4.70;;
12826;SDS011;66927;48.812;9.118;2023-08-17T03:21:46;6.88;;;5.78;;
12826;SDS011;66927;48.812;9.118;2023-08-17T03:24:11;6.40;;;5.23;;
12826;SDS011;66927;48.812;9.118;2023-08-17T03:26:37;8.05;;;6.25;;
12826;SDS011;66927;48.812;9.118;2023-08-17T03:29:02;8.07;;;6.03;;
12826;SDS011;66927;48.812;9.118;2023-08-17T03:31:28;7.00;;;6.40;;
12826;SDS011;66927;48.812;9.118;2023-08-17T03:33:54;7.97;;;7.17;;
12826;SDS011;66927;48.812;9.118;2023-08-17T03:36:20;8.23;;;6.63;;
12826;SDS011;66927;48.812;9.118;2023-08-17T03:38:46;8.70;;;7.83;;
12826;SDS011;66927;48.812;9.118;2023-08-17T03:41:12;10.40;;;8.43;;
12826;SDS011;66927;48.812;9.118;2023-08-17T03:43:38;8.33;;;7.53;;
12826;SDS011;66927;48.812;9.118;2023-08-17T03:46:04;8.88;;;7.97;;
12826;SDS011;66927;48.812;9.118;2023-08-17T03:48:30;9.43;;;8.20;;
12826;SDS011;66927;48.812;9.118;2023-08-17T03:50:56;9.03;;;8.13;;
12826;SDS011;66927;48.812;9.118;2023-08-17T03:53:21;8.80;;;8.00;;
12826;SDS011;66927;48.812;9.118;2023-08-17T03:55:48;8.57;;;7.70;;
12826;SDS011;66927;48.812;9.118;2023-08-17T03:58:14;11.17;;;9.67;;
12826;SDS011;66927;48.812;9.118;2023-08-17T04:00:40;9.60;;;8.47;;
12826;SDS011;66927;48.812;9.118;2023-08-17T04:03:07;10.03;;;8.77;;
12826;SDS011;66927;48.812;9.118;2023-08-17T04:05:32;10.20;;;8.13;;
12826;SDS011;66927;48.812;9.118;2023-08-17T04:07:58;14.37;;;9.77;;
12826;SDS011;66927;48.812;9.118;2023-08-17T04:10:27;8.93;;;8.10;;
12826;SDS011;66927;48.812;9.118;2023-08-17T04:12:53;11.03;;;8.53;;
12826;SDS011;66927;48.812;9.118;2023-08-17T04:15:21;11.53;;;9.30;;
12826;SDS011;66927;48.812;9.118;2023-08-17T04:17:47;9.80;;;8.83;;
12826;SDS011;66927;48.812;9.118;2023-08-17T04:20:12;9.87;;;8.93;;
12826;SDS011;66927;48.812;9.118;2023-08-17T04:22:38;8.53;;;7.73;;
12826;SDS011;66927;48.812;9.118;2023-08-17T04:25:04;10.97;;;8.63;;
12826;SDS011;66927;48.812;9.118;2023-08-17T04:27:29;10.57;;;8.67;;
12826;SDS011;66927;48.812;9.118;2023-08-17T04:29:57;9.03;;;8.13;;
12826;SDS011;66927;48.812;9.118;2023-08-17T04:32:22;11.63;;;8.90;;
12826;SDS011;66927;48.812;9.118;2023-08-17T04:34:48;10.13;;;9.07;;
12826;SDS011;66927;48.812;9.118;2023-08-17T04:37:14;10.10;;;9.10;;
12826;SDS011;66927;48.812;9.118;2023-08-17T04:39:39;9.03;;;8.13;;
12826;SDS011;66927;48.812;9.118;2023-08-17T04:42:06;10.33;;;8.63;;
12826;SDS011;66927;48.812;9.118;2023-08-17T04:44:32;8.10;;;7.30;;
12826;SDS011;66927;48.812;9.118;2023-08-17T04:46:58;8.03;;;7.13;;
12826;SDS011;66927;48.812;9.118;2023-08-17T04:49:24;8.00;;;7.30;;
12826;SDS011;66927;48.812;9.118;2023-08-17T04:51:51;9.03;;;8.23;;
12826;SDS011;66927;48.812;9.118;2023-08-17T04:54:17;9.33;;;8.43;;
12826;SDS011;66927;48.812;9.118;2023-08-17T04:56:42;11.37;;;10.27;;
12826;SDS011;66927;48.812;9.118;2023-08-17T04:59:08;9.27;;;8.37;;
12826;SDS011;66927;48.812;9.118;2023-08-17T05:01:34;10.27;;;8.57;;
12826;SDS011;66927;48.812;9.118;2023-08-17T05:04:00;9.60;;;7.83;;
12826;SDS011;66927;48.812;9.118;2023-08-17T05:06:29;8.10;;;7.33;;
12826;SDS011;66927;48.812;9.118;2023-08-17T05:08:55;9.27;;;7.93;;
12826;SDS011;66927;48.812;9.118;2023-08-17T05:11:21;7.90;;;7.20;;
12826;SDS011;66927;48.812;9.118;2023-08-17T05:13:47;8.93;;;8.00;;
12826;SDS011;66927;48.812;9.118;2023-08-17T05:16:12;9.23;;;8.33;;
12826;SDS011;66927;48.812;9.118;2023-08-17T05:18:38;9.20;;;8.30;;
12826;SDS011;66927;48.812;9.118;2023-08-17T05:21:04;9.37;;;8.00;;
12826;SDS011;66927;48.812;9.118;2023-08-17T05:23:29;8.63;;;7.93;;
12826;SDS011;66927;48.812;9.118;2023-08-17T05:25:55;13.20;;;11.87;;
12826;SDS011;66927;48.812;9.118;2023-08-17T05:28:20;9.97;;;8.93;;
12826;SDS011;66927;48.812;9.118;2023-08-17T05:30:46;8.27;;;7.57;;
12826;SDS011;66927;48.812;9.118;2023-08-17T05:33:13;8.90;;;8.00;;
12826;SDS011;66927;48.812;9.118;2023-08-17T05:35:39;9.63;;;8.33;;
12826;SDS011;66927;48.812;9.118;2023-08-17T05:38:05;9.30;;;8.40;;
12826;SDS011;66927;48.812;9.118;2023-08-17T05:40:31;10.27;;;9.38;;
12826;SDS011;66927;48.812;9.118;2023-08-17T05:42:57;10.50;;;9.07;;
12826;SDS011;66927;48.812;9.118;2023-08-17T05:45:22;9.17;;;8.27;;
12826;SDS011;66927;48.812;9.118;2023-08-17T05:47:48;9.80;;;8.90;;
12826;SDS011;66927;48.812;9.118;2023-08-17T05:50:16;11.20;;;10.17;;
12826;SDS011;66927;48.812;9.118;2023-08-17T05:52:42;11.77;;;10.67;;
12826;SDS011;66927;48.812;9.118;2023-08-17T05:55:07;10.00;;;9.00;;
12826;SDS011;66927;48.812;9.118;2023-08-17T05:57:33;10.47;;;9.47;;
12826;SDS011;66927;48.812;9.118;2023-08-17T05:59:59;12.07;;;10.97;;
12826;SDS011;66927;48.812;9.118;2023-08-17T06:02:25;9.83;;;8.93;;
12826;SDS011;66927;48.812;9.118;2023-08-17T06:04:50;11.07;;;9.47;;
12826;SDS011;66927;48.812;9.118;2023-08-17T06:07:16;9.43;;;8.50;;
12826;SDS011;66927;48.812;9.118;2023-08-17T06:09:43;10.30;;;9.30;;
12826;SDS011;66927;48.812;9.118;2023-08-17T06:12:09;9.50;;;8.60;;
12826;SDS011;66927;48.812;9.118;2023-08-17T06:14:34;11.10;;;10.00;;
12826;SDS011;66927;48.812;9.118;2023-08-17T06:17:00;9.60;;;8.70;;
12826;SDS011;66927;48.812;9.118;2023-08-17T06:19:25;10.60;;;9.60;;
12826;SDS011;66927;48.812;9.118;2023-08-17T06:21:51;10.07;;;9.07;;
12826;SDS011;66927;48.812;9.118;2023-08-17T06:24:17;9.70;;;8.80;;
12826;SDS011;66927;48.812;9.118;2023-08-17T06:26:43;10.07;;;9.07;;
12826;SDS011;66927;48.812;9.118;2023-08-17T06:29:12;9.38;;;8.52;;
12826;SDS011;66927;48.812;9.118;2023-08-17T06:31:40;10.50;;;8.87;;
12826;SDS011;66927;48.812;9.118;2023-08-17T06:34:06;9.07;;;8.07;;
12826;SDS011;66927;48.812;9.118;2023-08-17T06:36:32;9.87;;;8.80;;
12826;SDS011;66927;48.812;9.118;2023-08-17T06:38:58;9.90;;;8.73;;
12826;SDS011;66927;48.812;9.118;2023-08-17T06:41:23;9.07;;;8.27;;
12826;SDS011;66927;48.812;9.118;2023-08-17T06:43:50;11.30;;;9.77;;
12826;SDS011;66927;48.812;9.118;2023-08-17T06:46:16;9.60;;;8.70;;
12826;SDS011;66927;48.812;9.118;2023-08-17T06:48:42;9.23;;;8.40;;
12826;SDS011;66927;48.812;9.118;2023-08-17T06:51:08;10.20;;;8.90;;
12826;SDS011;66927;48.812;9.118;2023-08-17T06:53:34;9.57;;;8.65;;
12826;SDS011;66927;48.812;9.118;2023-08-17T06:55:59;9.15;;;8.02;;
12826;SDS011;66927;48.812;9.118;2023-08-17T06:58:25;10.18;;;9.20;;
12826;SDS011;66927;48.812;9.118;2023-08-17T07:00:51;11.30;;;9.20;;
12826;SDS011;66927;48.812;9.118;2023-08-17T07:03:16;10.80;;;9.80;;
12826;SDS011;66927;48.812;9.118;2023-08-17T07:05:42;8.53;;;7.83;;
12826;SDS011;66927;48.812;9.118;2023-08-17T07:08:08;9.80;;;8.80;;
12826;SDS011;66927;48.812;9.118;2023-08-17T07:10:33;8.57;;;7.43;;
12826;SDS011;66927;48.812;9.118;2023-08-17T07:12:59;11.97;;;10.77;;
12826;SDS011;66927;48.812;9.118;2023-08-17T07:15:28;16.20;;;12.80;;
12826;SDS011;66927;48.812;9.118;2023-08-17T07:17:54;12.40;;;11.30;;
12826;SDS011;66927;48.812;9.118;2023-08-17T07:20:20;10.82;;;9.77;;
12826;SDS011;66927;48.812;9.118;2023-08-17T07:22:46;10.43;;;9.10;;
12826;SDS011;66927;48.812;9.118;2023-08-17T07:25:12;12.00;;;10.33;;
12826;SDS011;66927;48.812;9.118;2023-08-17T07:27:38;9.27;;;8.37;;
12826;SDS011;66927;48.812;9.118;2023-08-17T07:30:03;11.63;;;9.30;;
12826;SDS011;66927;48.812;9.118;2023-08-17T07:32:33;10.17;;;9.17;;
12826;SDS011;66927;48.812;9.118;2023-08-17T07:34:59;9.40;;;8.50;;
12826;SDS011;66927;48.812;9.118;2023-08-17T07:37:24;11.37;;;9.97;;
12826;SDS011;66927;48.812;9.118;2023-08-17T07:39:57;8.97;;;8.07;;
12826;SDS011;66927;48.812;9.118;2023-08-17T07:42:23;10.55;;;7.55;;
12826;SDS011;66927;48.812;9.118;2023-08-17T07:44:48;9.15;;;8.30;;
12826;SDS011;66927;48.812;9.118;2023-08-17T07:47:14;9.20;;;8.33;;
12826;SDS011;66927;48.812;9.118;2023-08-17T07:49:40;10.05;;;9.10;;
12826;SDS011;66927;48.812;9.118;2023-08-17T07:52:05;12.05;;;10.52;;
12826;SDS011;66927;48.812;9.118;2023-08-17T07:54:32;15.30;;;9.77;;
12826;SDS011;66927;48.812;9.118;2023-08-17T07:56:58;9.70;;;8.70;;
12826;SDS011;66927;48.812;9.118;2023-08-17T07:59:24;12.82;;;11.50;;
12826;SDS011;66927;48.812;9.118;2023-08-17T08:01:50;10.30;;;8.65;;
12826;SDS011;66927;48.812;9.118;2023-08-17T08:04:15;10.82;;;9.93;;
12826;SDS011;66927;48.812;9.118;2023-08-17T08:06:41;10.60;;;9.70;;
12826;SDS011;66927;48.812;9.118;2023-08-17T08:09:07;8.25;;;7.45;;
12826;SDS011;66927;48.812;9.118;2023-08-17T08:11:33;11.70;;;9.83;;
12826;SDS011;66927;48.812;9.118;2023-08-17T08:13:58;9.30;;;8.32;;
12826;SDS011;66927;48.812;9.118;2023-08-17T08:16:24;10.73;;;9.73;;
12826;SDS011;66927;48.812;9.118;2023-08-17T08:18:50;10.90;;;9.27;;
12826;SDS011;66927;48.812;9.118;2023-08-17T08:21:15;9.05;;;8.23;;
12826;SDS011;66927;48.812;9.118;2023-08-17T08:23:41;8.85;;;8.05;;
12826;SDS011;66927;48.812;9.118;2023-08-17T08:26:07;12.73;;;11.33;;
12826;SDS011;66927;48.812;9.118;2023-08-17T08:28:32;11.05;;;10.00;;
12826;SDS011;66927;48.812;9.118;2023-08-17T08:31:02;10.15;;;8.30;;
12826;SDS011;66927;48.812;9.118;2023-08-17T08:33:28;8.23;;;7.43;;
12826;SDS011;66927;48.812;9.118;2023-08-17T08:35:55;9.73;;;8.40;;
12826;SDS011;66927;48.812;9.118;2023-08-17T08:38:23;8.20;;;7.03;;
12826;SDS011;66927;48.812;9.118;2023-08-17T08:40:49;8.63;;;7.82;;
12826;SDS011;66927;48.812;9.118;2023-08-17T08:43:15;10.45;;;9.35;;
12826;SDS011;66927;48.812;9.118;2023-08-17T08:45:41;9.68;;;8.77;;
12826;SDS011;66927;48.812;9.118;2023-08-17T08:48:09;8.82;;;7.90;;
12826;SDS011;66927;48.812;9.118;2023-08-17T08:50:36;9.80;;;8.45;;
12826;SDS011;66927;48.812;9.118;2023-08-17T08:53:06;9.45;;;8.50;;
12826;SDS011;66927;48.812;9.118;2023-08-17T08:55:42;9.77;;;8.82;;
12826;SDS011;66927;48.812;9.118;2023-08-17T08:58:12;8.05;;;7.35;;
12826;SDS011;66927;48.812;9.118;2023-08-17T09:00:41;8.85;;;7.85;;
12826;SDS011;66927;48.812;9.118;2023-08-17T09:03:08;8.10;;;7.28;;
12826;SDS011;66927;48.812;9.118;2023-08-17T09:05:34;7.68;;;7.00;;
12826;SDS011;66927;48.812;9.118;2023-08-17T09:08:01;9.30;;;7.30;;
12826;SDS011;66927;48.812;9.118;2023-08-17T09:10:27;6.63;;;6.07;;
12826;SDS011;66927;48.812;9.118;2023-08-17T09:12:53;11.20;;;10.18;;
12826;SDS011;66927;48.812;9.118;2023-08-17T09:15:19;9.65;;;8.75;;
12826;SDS011;66927;48.812;9.118;2023-08-17T09:17:45;9.10;;;8.18;;
12826;SDS011;66927;48.812;9.118;2023-08-17T09:20:17;8.88;;;7.07;;
12826;SDS011;66927;48.812;9.118;2023-08-17T09:23:03;7.85;;;7.25;;
12826;SDS011;66927;48.812;9.118;2023-08-17T09:25:30;8.65;;;7.80;;
12826;SDS011;66927;48.812;9.118;2023-08-17T09:27:57;11.13;;;9.73;;
12826;SDS011;66927;48.812;9.118;2023-08-17T09:30:22;7.20;;;6.60;;
12826;SDS011;66927;48.812;9.118;2023-08-17T09:32:48;9.75;;;6.95;;
12826;SDS011;66927;48.812;9.118;2023-08-17T09:35:15;8.43;;;7.63;;
12826;SDS011;66927;48.812;9.118;2023-08-17T09:37:41;7.28;;;6.45;;
12826;SDS011;66927;48.812;9.118;2023-08-17T09:40:07;8.18;;;6.82;;
12826;SDS011;66927;48.812;9.118;2023-08-17T09:42:36;8.40;;;7.63;;
12826;SDS011;66927;48.812;9.118;2023-08-17T09:45:04;9.35;;;6.97;;
12826;SDS011;66927;48.812;9.118;2023-08-17T09:47:30;9.10;;;7.25;;
12826;SDS011;66927;48.812;9.118;2023-08-17T09:49:55;6.85;;;6.25;;
12826;SDS011;66927;48.812;9.118;2023-08-17T09:52:22;9.32;;;8.43;;
12826;SDS011;66927;48.812;9.118;2023-08-17T09:54:48;9.55;;;8.45;;
12826;SDS011;66927;48.812;9.118;2023-08-17T09:57:17;8.27;;;7.20;;
12826;SDS011;66927;48.812;9.118;2023-08-17T09:59:42;7.70;;;6.88;;
12826;SDS011;66927;48.812;9.118;2023-08-17T10:02:18;9.05;;;7.88;;
12826;SDS011;66927;48.812;9.118;2023-08-17T10:04:49;7.65;;;6.90;;
12826;SDS011;66927;48.812;9.118;2023-08-17T10:07:18;8.50;;;7.70;;
12826;SDS011;66927;48.812;9.118;2023-08-17T10:09:48;8.50;;;7.70;;
12826;SDS011;66927;48.812;9.118;2023-08-17T10:12:19;8.13;;;7.07;;
12826;SDS011;66927;48.812;9.118;2023-08-17T10:14:53;11.93;;;8.32;;
12826;SDS011;66927;48.812;9.118;2023-08-17T10:17:27;10.35;;;7.78;;
12826;SDS011;66927;48.812;9.118;2023-08-17T10:20:24;13.70;;;8.27;;
12826;SDS011;66927;48.812;9.118;2023-08-17T10:23:01;8.25;;;7.50;;
12826;SDS011;66927;48.812;9.118;2023-08-17T10:25:55;7.18;;;6.47;;
12826;SDS011;66927;48.812;9.118;2023-08-17T10:28:21;8.60;;;7.90;;
12826;SDS011;66927;48.812;9.118;2023-08-17T10:30:48;7.47;;;6.82;;
12826;SDS011;66927;48.812;9.118;2023-08-17T10:33:14;9.50;;;8.65;;
12826;SDS011;66927;48.812;9.118;2023-08-17T10:35:40;8.93;;;7.20;;
12826;SDS011;66927;48.812;9.118;2023-08-17T10:38:07;8.52;;;7.72;;
12826;SDS011;66927;48.812;9.118;2023-08-17T10:40:37;8.48;;;7.68;;
12826;SDS011;66927;48.812;9.118;2023-08-17T10:43:05;7.57;;;6.88;;
12826;SDS011;66927;48.812;9.118;2023-08-17T10:45:31;7.75;;;7.13;;
12826;SDS011;66927;48.812;9.118;2023-08-17T10:50:58;8.38;;;7.38;;
12826;SDS011;66927;48.812;9.118;2023-08-17T10:53:33;7.22;;;6.63;;
12826;SDS011;66927;48.812;9.118;2023-08-17T10:56:00;6.75;;;6.15;;
12826;SDS011;66927;48.812;9.118;2023-08-17T10:58:25;8.80;;;7.68;;
12826;SDS011;66927;48.812;9.118;2023-08-17T11:00:55;8.63;;;7.43;;
12826;SDS011;66927;48.812;9.118;2023-08-17T11:03:22;9.98;;;9.00;;
12826;SDS011;66927;48.812;9.118;2023-08-17T11:05:48;8.88;;;7.50;;
12826;SDS011;66927;48.812;9.118;2023-08-17T11:08:21;7.47;;;6.63;;
12826;SDS011;66927;48.812;9.118;2023-08-17T11:11:04;7.43;;;6.70;;
12826;SDS011;66927;48.812;9.118;2023-08-17T11:13:33;8.27;;;6.60;;
12826;SDS011;66927;48.812;9.118;2023-08-17T11:16:01;7.43;;;6.82;;
12826;SDS011;66927;48.812;9.118;2023-08-17T11:18:27;7.05;;;6.47;;
12826;SDS011;66927;48.812;9.118;2023-08-17T11:20:53;8.18;;;7.45;;
12826;SDS011;66927;48.812;9.118;2023-08-17T11:23:20;7.35;;;6.75;;
12826;SDS011;66927;48.812;9.118;2023-08-17T11:25:47;7.25;;;6.55;;
12826;SDS011;66927;48.812;9.118;2023-08-17T11:28:13;11.15;;;7.28;;
12826;SDS011;66927;48.812;9.118;2023-08-17T11:30:39;9.25;;;7.75;;
12826;SDS011;66927;48.812;9.118;2023-08-17T11:33:05;7.40;;;6.55;;
12826;SDS011;66927;48.812;9.118;2023-08-17T11:35:32;8.05;;;7.28;;
12826;SDS011;66927;48.812;9.118;2023-08-17T11:37:57;7.60;;;6.90;;
12826;SDS011;66927;48.812;9.118;2023-08-17T11:40:24;7.75;;;7.05;;
12826;SDS011;66927;48.812;9.118;2023-08-17T11:42:51;7.72;;;7.03;;
12826;SDS011;66927;48.812;9.118;2023-08-17T11:45:17;7.45;;;6.75;;
12826;SDS011;66927;48.812;9.118;2023-08-17T11:47:43;14.80;;;13.57;;
12826;SDS011;66927;48.812;9.118;2023-08-17T11:50:12;15.45;;;14.00;;
12826;SDS011;66927;48.812;9.118;2023-08-17T11:52:39;11.98;;;10.82;;
12826;SDS011;66927;48.812;9.118;2023-08-17T11:55:10;8.10;;;7.30;;
12826;SDS011;66927;48.812;9.118;2023-08-17T11:57:36;7.97;;;7.15;;
12826;SDS011;66927;48.812;9.118;2023-08-17T12:00:02;7.28;;;6.57;;
12826;SDS011;66927;48.812;9.118;2023-08-17T12:02:31;7.90;;;7.10;;
12826;SDS011;66927;48.812;9.118;2023-08-17T12:04:57;8.00;;;7.05;;
12826;SDS011;66927;48.812;9.118;2023-08-17T12:07:25;9.02;;;7.38;;
12826;SDS011;66927;48.812;9.118;2023-08-17T12:09:52;8.32;;;7.53;;
12826;SDS011;66927;48.812;9.118;2023-08-17T12:12:18;7.85;;;7.15;;
12826;SDS011;66927;48.812;9.118;2023-08-17T12:14:47;7.95;;;7.15;;
12826;SDS011;66927;48.812;9.118;2023-08-17T12:17:14;8.25;;;7.50;;
12826;SDS011;66927;48.812;9.118;2023-08-17T12:19:44;7.45;;;6.75;;
12826;SDS011;66927;48.812;9.118;2023-08-17T12:22:13;7.50;;;6.90;;
12826;SDS011;66927;48.812;9.118;2023-08-17T12:24:39;6.60;;;6.10;;
12826;SDS011;66927;48.812;9.118;2023-08-17T12:27:08;6.97;;;6.40;;
12826;SDS011;66927;48.812;9.118;2023-08-17T12:29:33;8.20;;;6.80;;
12826;SDS011;66927;48.812;9.118;2023-08-17T12:32:10;6.95;;;6.30;;
12826;SDS011;66927;48.812;9.118;2023-08-17T12:34:36;7.25;;;6.72;;
12826;SDS011;66927;48.812;9.118;2023-08-17T12:37:01;7.60;;;6.53;;
12826;SDS011;66927;48.812;9.118;2023-08-17T12:39:27;6.40;;;5.80;;
12826;SDS011;66927;48.812;9.118;2023-08-17T12:41:52;8.38;;;6.60;;
12826;SDS011;66927;48.812;9.118;2023-08-17T12:44:18;7.18;;;6.47;;
12826;SDS011;66927;48.812;9.118;2023-08-17T12:46:44;8.40;;;6.38;;
12826;SDS011;66927;48.812;9.118;2023-08-17T12:49:09;6.68;;;6.05;;
12826;SDS011;66927;48.812;9.118;2023-08-17T12:51:35;6.70;;;6.20;;
12826;SDS011;66927;48.812;9.118;2023-08-17T12:54:00;5.95;;;5.35;;
12826;SDS011;66927;48.812;9.118;2023-08-17T12:56:26;6.93;;;5.70;;
12826;SDS011;66927;48.812;9.118;2023-08-17T12:58:52;5.90;;;5.40;;
12826;SDS011;66927;48.812;9.118;2023-08-17T13:01:17;6.22;;;5.68;;
12826;SDS011;66927;48.812;9.118;2023-08-17T13:03:43;8.57;;;7.78;;
12826;SDS011;66927;48.812;9.118;2023-08-17T13:06:09;9.63;;;8.73;;
12826;SDS011;66927;48.812;9.118;2023-08-17T13:08:35;6.25;;;5.65;;
12826;SDS011;66927;48.812;9.118;2023-08-17T13:11:00;6.43;;;5.38;;
12826;SDS011;66927;48.812;9.118;2023-08-17T13:13:26;6.10;;;5.57;;
12826;SDS011;66927;48.812;9.118;2023-08-17T13:15:52;5.90;;;5.30;;
12826;SDS011;66927;48.812;9.118;2023-08-17T13:18:17;11.48;;;5.55;;
12826;SDS011;66927;48.812;9.118;2023-08-17T13:20:43;8.50;;;5.03;;
12826;SDS011;66927;48.812;9.118;2023-08-17T13:23:09;5.75;;;5.25;;
12826;SDS011;66927;48.812;9.118;2023-08-17T13:25:36;5.93;;;5.40;;
12826;SDS011;66927;48.812;9.118;2023-08-17T13:28:02;6.00;;;5.05;;
12826;SDS011;66927;48.812;9.118;2023-08-17T13:30:28;7.35;;;6.65;;
12826;SDS011;66927;48.812;9.118;2023-08-17T13:32:54;6.65;;;5.28;;
12826;SDS011;66927;48.812;9.118;2023-08-17T13:35:20;5.97;;;5.38;;
12826;SDS011;66927;48.812;9.118;2023-08-17T13:37:50;6.35;;;5.40;;
12826;SDS011;66927;48.812;9.118;2023-08-17T13:40:18;6.03;;;5.53;;
12826;SDS011;66927;48.812;9.118;2023-08-17T13:42:46;6.05;;;5.55;;
12826;SDS011;66927;48.812;9.118;2023-08-17T13:45:11;6.20;;;5.60;;
12826;SDS011;66927;48.812;9.118;2023-08-17T13:47:37;6.10;;;5.60;;
12826;SDS011;66927;48.812;9.118;2023-08-17T13:50:03;6.55;;;5.82;;
12826;SDS011;66927;48.812;9.118;2023-08-17T13:52:29;6.75;;;6.05;;
12826;SDS011;66927;48.812;9.118;2023-08-17T13:54:55;7.68;;;6.65;;
12826;SDS011;66927;48.812;9.118;2023-08-17T13:57:20;7.07;;;6.50;;
12826;SDS011;66927;48.812;9.118;2023-08-17T13:59:46;7.35;;;6.43;;
12826;SDS011;66927;48.812;9.118;2023-08-17T14:02:12;6.50;;;5.90;;
12826;SDS011;66927;48.812;9.118;2023-08-17T14:04:37;6.75;;;6.03;;
12826;SDS011;66927;48.812;9.118;2023-08-17T14:07:03;7.50;;;6.47;;
12826;SDS011;66927;48.812;9.118;2023-08-17T14:09:29;6.65;;;6.05;;
12826;SDS011;66927;48.812;9.118;2023-08-17T14:11:55;7.55;;;6.85;;
12826;SDS011;66927;48.812;9.118;2023-08-17T14:14:21;6.82;;;6.13;;
12826;SDS011;66927;48.812;9.118;2023-08-17T14:16:46;9.23;;;8.35;;
12826;SDS011;66927;48.812;9.118;2023-08-17T14:19:12;7.68;;;5.60;;
12826;SDS011;66927;48.812;9.118;2023-08-17T14:21:38;6.78;;;6.20;;
12826;SDS011;66927;48.812;9.118;2023-08-17T14:24:03;6.20;;;5.70;;
12826;SDS011;66927;48.812;9.118;2023-08-17T14:26:31;7.20;;;6.60;;
12826;SDS011;66927;48.812;9.118;2023-08-17T14:28:57;6.75;;;5.95;;
12826;SDS011;66927;48.812;9.118;2023-08-17T14:31:23;7.28;;;5.53;;
12826;SDS011;66927;48.812;9.118;2023-08-17T14:33:48;7.45;;;6.68;;
12826;SDS011;66927;48.812;9.118;2023-08-17T14:36:14;7.10;;;6.13;;
12826;SDS011;66927;48.812;9.118;2023-08-17T14:38:41;7.55;;;6.85;;
12826;SDS011;66927;48.812;9.118;2023-08-17T14:41:07;8.07;;;6.93;;
12826;SDS011;66927;48.812;9.118;2023-08-17T14:43:34;7.57;;;6.82;;
12826;SDS011;66927;48.812;9.118;2023-08-17T14:46:00;7.47;;;6.38;;